Time;durP1;ratioP1;P1;durP2;ratioP2;P2;SDS_P1;SDS_P2;PMS_P1;PMS_P2;Temp;Humidity;BMP_temperature;BMP_pressure;BME280_temperature;BME280_humidity;BME280_pressure;Samples;Min_cycle;Max_cycle;Signal;HPM_P1;HPM_P2
2021/10/10 00:00:16;;;;;;;17.15;10.68;;;;;;;-139.48;100.00;61774.03;4995475;28;20048;-72
2021/10/10 00:03:00;;;;;;;15.40;10.68;;;;;;;-139.48;100.00;61774.03;4995142;28;20053;-73
2021/10/10 00:05:44;;;;;;;16.88;11.13;;;;;;;-139.48;100.00;61774.03;4981203;28;20053;-73
2021/10/10 00:08:28;;;;;;;19.48;11.63;;;;;;;-139.48;100.00;61774.03;5033392;22;20105;-69
2021/10/10 00:11:12;;;;;;;17.02;11.35;;;;;;;-139.48;100.00;61774.03;4996015;28;20049;-69
2021/10/10 00:13:56;;;;;;;22.05;11.80;;;;;;;-139.48;100.00;61774.03;4995889;28;20068;-69
2021/10/10 00:16:40;;;;;;;17.27;11.50;;;;;;;-139.48;100.00;61774.03;4994588;28;20112;-69
2021/10/10 00:19:24;;;;;;;21.00;11.65;;;;;;;-139.48;100.00;61774.03;4994769;28;20045;-69
2021/10/10 00:22:08;;;;;;;18.65;11.75;;;;;;;-139.48;100.00;61774.03;4995891;28;20045;-69
2021/10/10 00:24:52;;;;;;;21.48;11.75;;;;;;;-139.48;100.00;61774.03;4994799;28;20181;-69
2021/10/10 00:27:36;;;;;;;17.35;11.43;;;;;;;-139.48;100.00;61774.03;4980975;28;20045;-69
2021/10/10 00:30:22;;;;;;;17.05;11.10;;;;;;;-139.48;100.00;61774.03;4980811;28;20562;-69
2021/10/10 00:33:06;;;;;;;19.98;10.98;;;;;;;-139.48;100.00;61774.03;4995553;28;20057;-69
2021/10/10 00:35:50;;;;;;;22.45;11.27;;;;;;;-139.48;100.00;61774.03;4995531;28;20130;-69
2021/10/10 00:38:34;;;;;;;17.52;11.57;;;;;;;-139.48;100.00;61774.03;4980564;28;20594;-69
2021/10/10 00:41:17;;;;;;;22.40;11.77;;;;;;;-139.48;100.00;61774.03;4994466;28;20057;-69
2021/10/10 00:44:09;;;;;;;17.80;11.75;;;;;;;-139.48;100.00;61774.03;4994416;28;20529;-69
2021/10/10 00:46:54;;;;;;;16.92;11.10;;;;;;;-139.48;100.00;61774.03;4994044;28;20566;-69
2021/10/10 00:49:38;;;;;;;17.67;12.10;;;;;;;-139.48;100.00;61774.03;4980280;28;20049;-69
2021/10/10 00:52:23;;;;;;;17.70;11.30;;;;;;;-139.48;100.00;61774.03;4994208;28;20562;-69
2021/10/10 00:55:08;;;;;;;19.05;10.93;;;;;;;-139.48;100.00;61774.03;4980640;28;20511;-69
2021/10/10 00:57:54;;;;;;;25.00;11.65;;;;;;;-139.48;100.00;61774.03;4993958;28;20418;-69
2021/10/10 01:00:38;;;;;;;17.48;11.57;;;;;;;-139.48;100.00;61774.03;4994062;28;20050;-68
2021/10/10 01:03:23;;;;;;;17.67;11.68;;;;;;;-139.48;100.00;61774.03;4980515;28;20072;-69
2021/10/10 01:06:07;;;;;;;18.52;11.63;;;;;;;-139.48;100.00;61774.03;4993803;28;20091;-69
2021/10/10 01:08:51;;;;;;;22.45;12.05;;;;;;;-139.48;100.00;61774.03;4979920;28;20116;-69
2021/10/10 01:11:35;;;;;;;20.15;11.13;;;;;;;-139.48;100.00;61774.03;4993895;28;20053;-69
2021/10/10 01:14:19;;;;;;;18.98;10.65;;;;;;;-139.48;100.00;61774.03;4979874;28;20049;-69
2021/10/10 01:17:03;;;;;;;17.80;11.65;;;;;;;-139.48;100.00;61774.03;4993497;28;20045;-69
2021/10/10 01:19:48;;;;;;;20.20;11.18;;;;;;;-139.48;100.00;61774.03;4993438;28;20085;-69
2021/10/10 01:22:31;;;;;;;20.30;10.60;;;;;;;-139.48;100.00;61774.03;4993597;28;20114;-69
2021/10/10 01:25:15;;;;;;;19.98;11.48;;;;;;;-139.48;100.00;61774.03;4993664;28;20061;-68
2021/10/10 01:27:59;;;;;;;20.08;11.55;;;;;;;-139.48;100.00;61774.03;4993801;28;20073;-69
2021/10/10 01:30:44;;;;;;;27.48;11.25;;;;;;;-139.48;100.00;61774.03;4993405;28;20085;-68
2021/10/10 01:33:28;;;;;;;16.92;11.38;;;;;;;-139.48;100.00;61774.03;4979926;28;20049;-69
2021/10/10 01:36:13;;;;;;;21.60;11.35;;;;;;;-139.48;100.00;61774.03;4994139;28;20053;-69
2021/10/10 01:38:57;;;;;;;19.33;11.73;;;;;;;-139.48;100.00;61774.03;4979650;28;20045;-69
2021/10/10 01:41:41;;;;;;;22.35;11.43;;;;;;;-139.48;100.00;61774.03;4979718;28;20053;-69
2021/10/10 01:44:25;;;;;;;17.20;10.38;;;;;;;-139.48;100.00;61774.03;4994354;28;20097;-69
2021/10/10 01:47:08;;;;;;;19.15;10.02;;;;;;;-139.48;100.00;61774.03;4993356;28;20049;-69
2021/10/10 01:49:52;;;;;;;22.05;11.05;;;;;;;-139.48;100.00;61774.03;4993182;28;20157;-69
2021/10/10 01:52:38;;;;;;;17.60;10.75;;;;;;;-139.48;100.00;61774.03;4992970;28;20053;-69
2021/10/10 01:55:22;;;;;;;19.38;10.90;;;;;;;-139.48;100.00;61774.03;4992983;28;20522;-69
2021/10/10 01:58:06;;;;;;;16.35;10.07;;;;;;;-139.48;100.00;61774.03;4993148;28;20042;-70
2021/10/10 02:00:51;;;;;;;17.63;10.85;;;;;;;-139.48;100.00;61774.03;4994432;28;20049;-69
2021/10/10 02:03:35;;;;;;;17.30;10.05;;;;;;;-139.48;100.00;61774.03;4992866;28;20415;-67
2021/10/10 02:06:19;;;;;;;18.75;11.23;;;;;;;-139.48;100.00;61774.03;4979391;28;20049;-69
2021/10/10 02:09:03;;;;;;;18.52;10.23;;;;;;;-139.48;100.00;61774.03;4992655;28;20058;-69
2021/10/10 02:11:47;;;;;;;17.85;10.27;;;;;;;-139.48;100.00;61774.03;4997801;28;20105;-69
2021/10/10 02:14:30;;;;;;;15.27;10.65;;;;;;;-139.48;100.00;61774.03;4999581;28;20104;-69
2021/10/10 02:17:14;;;;;;;16.48;10.68;;;;;;;-139.48;100.00;61774.03;4999473;28;20057;-69
2021/10/10 02:19:58;;;;;;;18.20;10.88;;;;;;;-139.48;100.00;61774.03;4999211;28;20084;-69
2021/10/10 02:22:43;;;;;;;20.00;11.02;;;;;;;7.70;100.00;101432.91;4999449;28;20072;-69
2021/10/10 02:25:29;;;;;;;16.08;10.07;;;;;;;7.64;100.00;101430.69;5000538;28;20061;-69
2021/10/10 02:28:13;;;;;;;18.55;10.70;;;;;;;7.11;100.00;101421.72;4999538;28;20053;-69
2021/10/10 02:30:57;;;;;;;19.35;10.38;;;;;;;7.06;100.00;101427.31;4999341;28;20052;-69
2021/10/10 02:33:42;;;;;;;19.00;10.77;;;;;;;7.07;100.00;101426.34;4999849;28;20128;-69
2021/10/10 02:36:25;;;;;;;17.67;9.50;;;;;;;7.04;100.00;101423.91;4999557;28;20053;-69
2021/10/10 02:39:09;;;;;;;16.90;10.25;;;;;;;7.00;100.00;101430.34;4985522;28;20113;-69
2021/10/10 02:41:53;;;;;;;17.35;11.02;;;;;;;7.00;100.00;101427.69;5000606;28;20061;-69
2021/10/10 02:44:37;;;;;;;17.20;10.15;;;;;;;6.95;100.00;101416.50;4999287;28;20519;-69
2021/10/10 02:47:21;;;;;;;16.50;10.30;;;;;;;6.96;100.00;101422.69;4999210;28;20041;-69
2021/10/10 02:50:06;;;;;;;19.75;10.57;;;;;;;6.91;100.00;101420.31;4999875;28;20137;-68
2021/10/10 02:52:50;;;;;;;17.90;10.18;;;;;;;6.88;100.00;101427.59;4999219;28;20514;-69
2021/10/10 02:55:34;;;;;;;19.33;10.70;;;;;;;6.82;100.00;101418.22;4999090;28;20053;-69
2021/10/10 02:58:18;;;;;;;16.45;10.60;;;;;;;6.79;100.00;101418.38;4999774;28;20096;-69
2021/10/10 03:01:02;;;;;;;16.77;10.60;;;;;;;6.80;100.00;101421.88;4999167;28;20127;-69
2021/10/10 03:03:46;;;;;;;18.30;10.73;;;;;;;6.78;100.00;101419.31;4985336;28;20049;-69
2021/10/10 03:06:30;;;;;;;17.35;10.48;;;;;;;6.78;100.00;101416.66;4999925;28;20097;-69
2021/10/10 03:09:14;;;;;;;15.88;10.15;;;;;;;6.78;100.00;101419.31;4999629;28;20105;-69
2021/10/10 03:11:58;;;;;;;21.33;10.65;;;;;;;6.77;100.00;101422.09;4985319;28;20190;-69
2021/10/10 03:14:42;;;;;;;18.73;10.88;;;;;;;6.76;100.00;101418.56;4998947;28;20423;-69
2021/10/10 03:17:27;;;;;;;17.83;10.57;;;;;;;6.75;100.00;101427.47;4999883;28;20506;-69
2021/10/10 03:20:12;;;;;;;18.75;10.82;;;;;;;6.75;100.00;101434.59;4998585;28;20049;-69
2021/10/10 03:22:56;;;;;;;20.77;11.02;;;;;;;6.79;100.00;101425.47;4995857;28;20137;-69
2021/10/10 03:25:43;;;;;;;17.20;9.95;;;;;;;6.78;100.00;101418.47;4995836;28;20049;-69
2021/10/10 03:28:26;;;;;;;16.13;9.63;;;;;;;6.78;100.00;101418.47;4996681;28;20069;-69
2021/10/10 03:31:10;;;;;;;16.58;10.07;;;;;;;-139.48;100.00;61774.03;4996757;28;20125;-69
2021/10/10 03:33:54;;;;;;;20.55;11.05;;;;;;;-139.48;100.00;61774.03;4996573;28;20053;-68
2021/10/10 03:36:38;;;;;;;22.17;10.30;;;;;;;-139.48;100.00;61774.03;4995344;28;20053;-69
2021/10/10 03:39:22;;;;;;;18.88;10.65;;;;;;;-139.48;100.00;61774.03;4995301;28;20470;-69
2021/10/10 03:42:06;;;;;;;17.17;10.85;;;;;;;-139.48;100.00;61774.03;4996505;28;20128;-69
2021/10/10 03:44:50;;;;;;;16.33;10.52;;;;;;;-139.48;100.00;61774.03;4981753;28;20057;-69
2021/10/10 03:47:34;;;;;;;19.70;10.35;;;;;;;-139.48;100.00;61774.03;4996441;28;20185;-69
2021/10/10 03:50:18;;;;;;;18.63;10.82;;;;;;;-139.48;100.00;61774.03;4995278;28;20049;-69
2021/10/10 03:53:02;;;;;;;18.13;11.52;;;;;;;-139.48;100.00;61774.03;4996326;28;20053;-67
2021/10/10 03:55:50;;;;;;;18.02;11.73;;;;;;;-139.48;100.00;61774.03;4996237;28;20122;-69
2021/10/10 03:58:38;;;;;;;21.77;12.02;;;;;;;-139.48;100.00;61774.03;4995921;28;20089;-69
2021/10/10 04:01:22;;;;;;;19.52;11.82;;;;;;;-139.48;100.00;61774.03;4995463;28;20114;-69
2021/10/10 04:04:06;;;;;;;21.98;12.13;;;;;;;-139.48;100.00;61774.03;4995149;28;20505;-69
2021/10/10 04:06:51;;;;;;;20.83;11.55;;;;;;;-139.48;100.00;61774.03;4995065;28;20070;-70
2021/10/10 04:09:35;;;;;;;19.40;12.50;;;;;;;-139.48;100.00;61774.03;4994656;28;20570;-69
2021/10/10 04:12:18;;;;;;;20.60;12.70;;;;;;;6.31;100.00;101423.09;4995282;28;20065;-70
2021/10/10 04:15:03;;;;;;;20.38;12.70;;;;;;;6.29;100.00;101417.91;4994975;28;20072;-70
2021/10/10 04:17:47;;;;;;;24.58;13.27;;;;;;;-139.48;100.00;61774.03;4994684;28;20061;-70
2021/10/10 04:20:31;;;;;;;21.30;12.85;;;;;;;-139.48;100.00;61774.03;4994862;28;20161;-69
2021/10/10 04:23:15;;;;;;;24.85;13.32;;;;;;;-139.48;100.00;61774.03;4995771;28;20446;-70
2021/10/10 04:26:00;;;;;;;26.17;13.10;;;;;;;-139.48;100.00;61774.03;4994765;28;20050;-70
2021/10/10 04:28:44;;;;;;;21.88;13.70;;;;;;;-139.48;100.00;61774.03;4994369;28;20056;-70
2021/10/10 04:31:28;;;;;;;28.70;14.40;;;;;;;-139.48;100.00;61774.03;4994691;28;20057;-70
2021/10/10 04:34:12;;;;;;;25.33;14.05;;;;;;;-139.48;100.00;61774.03;4994294;28;20084;-68
2021/10/10 04:36:56;;;;;;;26.92;15.23;;;;;;;-139.48;100.00;61774.03;4980476;28;20471;-69
2021/10/10 04:39:40;;;;;;;25.40;14.98;;;;;;;-139.48;100.00;61774.03;4994428;28;20467;-70
2021/10/10 04:42:24;;;;;;;25.98;14.80;;;;;;;-139.48;100.00;61774.03;4980675;28;20411;-69
2021/10/10 04:45:08;;;;;;;24.83;14.60;;;;;;;-139.48;100.00;61774.03;4995352;28;20108;-70
2021/10/10 04:47:52;;;;;;;29.50;15.18;;;;;;;-139.48;100.00;61774.03;4993917;28;20447;-71
2021/10/10 04:50:36;;;;;;;26.58;14.90;;;;;;;-139.48;100.00;61774.03;4993964;28;20412;-70
2021/10/10 04:53:20;;;;;;;29.60;14.93;;;;;;;-139.48;100.00;61774.03;4993997;28;20137;-69
2021/10/10 04:56:04;;;;;;;30.10;16.08;;;;;;;-139.48;100.00;61774.03;4980378;28;20057;-69
2021/10/10 04:58:48;;;;;;;21.83;14.38;;;;;;;-139.48;100.00;61774.03;4980325;28;20558;-70
2021/10/10 05:01:32;;;;;;;23.38;14.15;;;;;;;-139.48;100.00;61774.03;4995233;28;20535;-70
2021/10/10 05:04:16;;;;;;;25.42;14.45;;;;;;;-139.48;100.00;61774.03;4980544;28;20503;-70
2021/10/10 05:07:00;;;;;;;27.95;15.48;;;;;;;-139.48;100.00;61774.03;4994980;28;20140;-70
2021/10/10 05:09:44;;;;;;;29.13;16.05;;;;;;;-139.48;100.00;61774.03;4993519;28;20104;-69
2021/10/10 05:12:27;;;;;;;28.38;15.55;;;;;;;-139.48;100.00;61774.03;4993879;28;20542;-69
2021/10/10 05:15:11;;;;;;;25.77;15.80;;;;;;;-139.48;100.00;61774.03;4993848;28;20065;-70
2021/10/10 05:17:55;;;;;;;26.92;15.32;;;;;;;-139.48;100.00;61774.03;4993612;28;20046;-70
2021/10/10 05:20:39;;;;;;;24.60;15.15;;;;;;;-139.48;100.00;61774.03;4993813;28;20073;-69
2021/10/10 05:23:23;;;;;;;22.75;15.50;;;;;;;-139.48;100.00;61774.03;4994673;28;20095;-69
2021/10/10 05:26:07;;;;;;;26.50;14.98;;;;;;;-139.48;100.00;61774.03;4979812;28;20050;-70
2021/10/10 05:28:51;;;;;;;23.50;15.45;;;;;;;-139.48;100.00;61774.03;4993521;28;20049;-69
2021/10/10 05:31:35;;;;;;;25.25;15.18;;;;;;;-139.48;100.00;61774.03;4993293;28;20470;-69
2021/10/10 05:34:18;;;;;;;29.95;16.27;;;;;;;-139.48;100.00;61774.03;4994514;28;20101;-69
2021/10/10 05:37:02;;;;;;;27.40;15.23;;;;;;;-139.48;100.00;61774.03;4994407;28;20073;-69
2021/10/10 05:39:46;;;;;;;23.20;14.80;;;;;;;-139.48;100.00;61774.03;4993324;28;20049;-70
2021/10/10 05:42:32;;;;;;;25.27;16.05;;;;;;;-139.48;100.00;61774.03;4994130;28;20483;-70
2021/10/10 05:45:16;;;;;;;26.73;15.00;;;;;;;-139.48;100.00;61774.03;4979182;28;20095;-70
2021/10/10 05:48:00;;;;;;;23.88;14.90;;;;;;;-139.48;100.00;61774.03;4993481;28;20100;-70
2021/10/10 05:50:44;;;;;;;25.23;16.05;;;;;;;-139.48;100.00;61774.03;4993298;28;20080;-67
2021/10/10 05:53:28;;;;;;;25.63;16.55;;;;;;;-139.48;100.00;61774.03;4993989;28;20049;-69
2021/10/10 05:56:12;;;;;;;28.20;16.60;;;;;;;-139.48;100.00;61774.03;4994081;28;20471;-70
2021/10/10 05:59:02;;;;;;;24.90;16.00;;;;;;;-139.48;100.00;61774.03;4993110;28;20089;-70
2021/10/10 06:01:46;;;;;;;23.70;15.63;;;;;;;-139.48;100.00;61774.03;4994127;28;20113;-70
2021/10/10 06:04:30;;;;;;;26.83;16.35;;;;;;;-139.48;100.00;61774.03;4993866;28;20084;-70
2021/10/10 06:07:14;;;;;;;25.52;14.95;;;;;;;-139.48;100.00;61774.03;4993094;28;20142;-70
2021/10/10 06:12:36;;;;;;;26.17;14.20;;;;;;;-139.48;100.00;61774.03;4992693;28;20077;-72
2021/10/10 06:15:20;;;;;;;20.45;14.35;;;;;;;-139.48;100.00;61774.03;4993055;28;20073;-73
2021/10/10 06:18:04;;;;;;;24.33;14.52;;;;;;;-139.48;100.00;61774.03;4992989;28;20100;-72
2021/10/10 06:20:48;;;;;;;20.85;12.48;;;;;;;-139.48;100.00;61774.03;4992689;28;20118;-73
2021/10/10 06:23:32;;;;;;;22.55;13.48;;;;;;;-139.48;100.00;61774.03;4993944;28;20061;-73
2021/10/10 06:26:16;;;;;;;23.17;12.68;;;;;;;-139.48;100.00;61774.03;4992912;28;20092;-73
2021/10/10 06:28:59;;;;;;;20.90;13.18;;;;;;;-139.48;100.00;61774.03;4992686;28;20064;-73
2021/10/10 06:31:43;;;;;;;21.02;12.70;;;;;;;-139.48;100.00;61774.03;4993579;28;20113;-72
2021/10/10 06:34:27;;;;;;;19.25;12.13;;;;;;;-139.48;100.00;61774.03;4993559;28;20108;-73
2021/10/10 06:37:11;;;;;;;25.85;13.15;;;;;;;-139.48;100.00;61774.03;4992628;28;20065;-73
2021/10/10 06:39:55;;;;;;;24.70;13.98;;;;;;;-139.48;100.00;61774.03;4992754;28;20061;-72
2021/10/10 06:42:39;;;;;;;21.85;13.02;;;;;;;-139.48;100.00;61774.03;4992519;28;20455;-73
2021/10/10 06:45:23;;;;;;;21.05;11.63;;;;;;;-139.48;100.00;61774.03;4992631;28;20415;-73
2021/10/10 06:48:07;;;;;;;19.98;13.40;;;;;;;-139.48;100.00;61774.03;4993771;28;20467;-73
2021/10/10 06:50:51;;;;;;;25.25;13.18;;;;;;;-139.48;100.00;61774.03;4978861;28;20492;-73
2021/10/10 06:53:35;;;;;;;22.88;13.32;;;;;;;-139.48;100.00;61774.03;4979097;28;20053;-73
2021/10/10 06:56:19;;;;;;;22.80;13.30;;;;;;;-139.48;100.00;61774.03;4992637;28;20129;-73
2021/10/10 06:59:03;;;;;;;22.35;13.45;;;;;;;-139.48;100.00;61774.03;4996318;28;20184;-73
2021/10/10 07:01:47;;;;;;;29.05;14.55;;;;;;;-139.48;100.00;61774.03;4995951;28;20057;-73
2021/10/10 07:04:32;;;;;;;24.55;14.32;;;;;;;-139.48;100.00;61774.03;4996149;28;20462;-72
2021/10/10 07:07:16;;;;;;;20.95;13.40;;;;;;;-139.48;100.00;61774.03;4982499;28;20411;-73
2021/10/10 07:10:00;;;;;;;21.38;12.50;;;;;;;-139.48;100.00;61774.03;4997042;28;20133;-72
2021/10/10 07:12:44;;;;;;;17.92;11.40;;;;;;;-139.48;100.00;61774.03;4995844;28;20486;-73
2021/10/10 07:15:28;;;;;;;20.52;11.88;;;;;;;-139.48;100.00;61774.03;4996380;28;20125;-73
2021/10/10 07:18:11;;;;;;;22.17;11.77;;;;;;;-139.48;100.00;61774.03;4996060;28;20085;-73
2021/10/10 07:26:55;;;;;;;20.58;11.07;;;;;;;-139.48;100.00;61774.03;4996847;28;20101;-72
2021/10/10 07:29:39;;;;;;;19.70;11.10;;;;;;;-139.48;100.00;61774.03;4995531;28;20044;-73
2021/10/10 07:32:23;;;;;;;20.00;10.88;;;;;;;-139.48;100.00;61774.03;4981799;28;20503;-73
2021/10/10 07:35:08;;;;;;;18.33;11.75;;;;;;;-139.48;100.00;61774.03;4995724;28;20510;-72
2021/10/10 07:37:52;;;;;;;22.27;10.82;;;;;;;-139.48;100.00;61774.03;4995556;28;20057;-73
2021/10/10 07:40:36;;;;;;;20.67;10.52;;;;;;;-139.48;100.00;61774.03;4995249;28;20053;-73
2021/10/10 07:43:21;;;;;;;17.50;11.07;;;;;;;-139.48;100.00;61774.03;4995723;28;20081;-72
2021/10/10 07:46:33;;;;;;;16.00;10.32;;;;;;;-139.48;100.00;61774.03;4994739;28;20053;-73
2021/10/10 07:49:11;;;;;;;18.67;10.95;;;;;;;-139.48;100.00;61774.03;4994976;28;20056;-73
2021/10/10 07:51:54;;;;;;;17.33;11.25;;;;;;;-139.48;100.00;61774.03;4994526;28;20105;-73
2021/10/10 07:54:38;;;;;;;21.38;10.68;;;;;;;-139.48;100.00;61774.03;4995720;28;20049;-72
2021/10/10 07:57:22;;;;;;;18.55;11.68;;;;;;;-139.48;100.00;61774.03;4995621;28;20065;-73
2021/10/10 08:00:07;;;;;;;22.48;11.18;;;;;;;-139.48;100.00;61774.03;4994554;28;20062;-73
2021/10/10 08:02:57;;;;;;;18.17;10.48;;;;;;;-139.48;100.00;61774.03;4980600;28;20053;-73
2021/10/10 08:05:43;;;;;;;19.10;10.70;;;;;;;-139.48;100.00;61774.03;4994440;28;20065;-73
2021/10/10 08:08:27;;;;;;;19.60;10.55;;;;;;;-139.48;100.00;61774.03;4993470;28;20518;-73
2021/10/10 08:11:11;;;;;;;16.25;10.90;;;;;;;-139.48;100.00;61774.03;4994016;28;20086;-72
2021/10/10 08:13:55;;;;;;;17.23;10.73;;;;;;;-139.48;100.00;61774.03;4980784;28;20061;-73
2021/10/10 08:16:40;;;;;;;19.75;10.77;;;;;;;-139.48;100.00;61774.03;4994213;28;20168;-73
2021/10/10 08:19:24;;;;;;;17.20;11.13;;;;;;;-139.48;100.00;61774.03;4994154;28;20511;-73
2021/10/10 08:22:08;;;;;;;16.92;10.68;;;;;;;-139.48;100.00;61774.03;4994944;28;20053;-73
2021/10/10 08:24:52;;;;;;;16.67;10.85;;;;;;;-139.48;100.00;61774.03;4994143;28;20112;-72
2021/10/10 08:27:37;;;;;;;15.13;10.60;;;;;;;-139.48;100.00;61774.03;4994062;28;20562;-73
2021/10/10 08:30:21;;;;;;;18.17;10.63;;;;;;;-139.48;100.00;61774.03;4980324;28;20065;-73
2021/10/10 08:33:05;;;;;;;17.42;10.98;;;;;;;-139.48;100.00;61774.03;4993999;28;20115;-73
2021/10/10 08:35:49;;;;;;;22.90;11.27;;;;;;;-139.48;100.00;61774.03;4993648;28;20115;-73
2021/10/10 08:38:34;;;;;;;21.23;12.05;;;;;;;-139.48;100.00;61774.03;4980331;28;20109;-73
2021/10/10 08:41:20;;;;;;;20.67;11.35;;;;;;;-139.48;100.00;61774.03;4979901;28;20419;-73
2021/10/10 08:44:07;;;;;;;15.63;10.45;;;;;;;-139.48;100.00;61774.03;4980046;28;20045;-73
2021/10/10 08:46:52;;;;;;;19.42;11.65;;;;;;;-139.48;100.00;61774.03;4979920;28;20428;-72
2021/10/10 08:49:37;;;;;;;16.88;10.45;;;;;;;-139.48;100.00;61774.03;4993349;28;20558;-73
2021/10/10 08:52:22;;;;;;;16.63;10.93;;;;;;;-139.48;100.00;61774.03;4993283;28;20529;-73
2021/10/10 08:55:07;;;;;;;19.08;10.88;;;;;;;-139.48;100.00;61774.03;4993262;28;20057;-73
2021/10/10 08:57:52;;;;;;;20.52;11.10;;;;;;;12.53;73.42;101486.41;4979620;28;20041;-73
2021/10/10 09:00:41;;;;;;;18.70;10.60;;;;;;;12.85;71.34;101481.88;4993549;28;20100;-72
2021/10/10 09:03:26;;;;;;;21.52;10.45;;;;;;;-139.48;100.00;61774.03;4993430;28;20057;-73
2021/10/10 09:06:10;;;;;;;18.42;10.65;;;;;;;14.18;67.69;101477.25;4979743;28;20470;-73
2021/10/10 09:08:54;;;;;;;20.40;9.90;;;;;;;16.05;59.25;101473.53;4993096;28;20507;-73
2021/10/10 09:11:44;;;;;;;16.08;9.88;;;;;;;18.95;50.72;101478.72;4994237;28;20420;-72
2021/10/10 09:14:28;;;;;;;16.60;10.68;;;;;;;21.19;43.37;101467.81;4992886;28;20048;-73
2021/10/10 09:17:13;;;;;;;15.82;9.73;;;;;;;23.53;37.68;101474.19;4993018;28;20553;-73
2021/10/10 09:19:59;;;;;;;15.40;9.60;;;;;;;25.31;34.87;101465.44;4993311;28;20594;-72
2021/10/10 09:22:42;;;;;;;18.40;10.40;;;;;;;26.92;31.83;101477.69;4993173;28;20125;-73
2021/10/10 09:25:26;;;;;;;;;;;;;;;28.26;28.74;101469.47;4993717;28;20053;-73
2021/10/10 09:28:24;;;;;;;14.80;9.75;;;;;;;29.53;27.70;101478.09;4992719;28;20059;-73
2021/10/10 09:31:08;;;;;;;19.05;11.02;;;;;;;30.51;26.17;101488.84;4992668;28;20049;-73
2021/10/10 09:33:57;;;;;;;19.40;10.68;;;;;;;30.77;25.44;101485.53;4979388;28;20521;-73
2021/10/10 09:36:41;;;;;;;13.20;10.18;;;;;;;31.32;24.39;101481.03;4993529;28;20542;-73
2021/10/10 09:39:35;;;;;;;19.77;11.60;;;;;;;30.51;25.00;101480.56;4979079;28;20141;-73
2021/10/10 09:42:46;;;;;;;16.70;11.02;;;;;;;30.75;24.56;101482.19;4992345;28;20088;-73
2021/10/10 09:45:32;;;;;;;15.25;10.82;;;;;;;32.11;23.97;101469.53;4992543;28;20061;-73
2021/10/10 09:48:26;;;;;;;14.88;10.75;;;;;;;32.12;23.02;101476.72;4992370;28;20048;-73
2021/10/10 09:51:11;;;;;;;16.73;10.65;;;;;;;32.69;22.32;101472.47;4992257;28;20118;-73
2021/10/10 09:54:05;;;;;;;15.95;10.68;;;;;;;32.87;22.28;101466.63;4978591;28;20048;-73
2021/10/10 09:57:02;;;;;;;16.45;10.95;;;;;;;32.46;22.24;101467.25;4978745;28;20045;-73
2021/10/10 09:59:47;;;;;;;13.38;10.13;;;;;;;33.55;22.07;101468.31;4993520;28;20108;-73
2021/10/10 10:02:41;;;;;;;16.02;11.55;;;;;;;33.15;22.24;101467.97;4992318;28;20056;-74
2021/10/10 10:05:27;;;;;;;17.08;11.25;;;;;;;33.74;21.61;101468.75;4992396;28;20052;-73
2021/10/10 10:08:11;;;;;;;16.35;11.27;;;;;;;33.39;21.86;101474.84;4978574;28;20048;-73
2021/10/10 10:10:55;;;;;;;18.33;11.02;;;;;;;31.85;22.58;101475.81;4992934;28;20154;-73
2021/10/10 10:13:40;;;;;;;13.93;10.32;;;;;;;32.61;22.04;101464.66;4993164;28;20173;-73
2021/10/10 10:16:24;;;;;;;12.93;10.73;;;;;;;31.24;23.46;101468.50;4991899;28;20053;-73
2021/10/10 10:19:10;;;;;;;14.85;10.82;;;;;;;32.66;22.66;101462.78;4992436;28;20423;-71
2021/10/10 10:21:56;;;;;;;16.15;10.85;;;;;;;33.26;21.43;101464.22;4993046;28;20100;-74
2021/10/10 10:24:44;;;;;;;15.88;11.13;;;;;;;33.99;21.04;101458.66;4992201;28;20060;-74
2021/10/10 10:27:29;;;;;;;14.90;10.40;;;;;;;34.01;20.91;101464.75;4978934;28;20045;-73
2021/10/10 10:30:14;;;;;;;20.20;11.60;;;;;;;32.99;21.39;101464.53;4993135;28;20092;-73
2021/10/10 10:32:58;;;;;;;14.05;10.77;;;;;;;33.50;21.36;101454.47;4994811;28;20049;-73
2021/10/10 10:35:46;;;;;;;15.93;10.98;;;;;;;34.74;20.30;101461.75;4982131;28;20511;-73
2021/10/10 10:38:47;;;;;;;14.52;10.32;;;;;;;35.43;19.17;101476.78;4982240;28;20036;-73
2021/10/10 10:41:47;;;;;;;14.23;10.60;;;;;;;35.86;19.29;101475.31;4995742;28;20607;-74
2021/10/10 10:44:36;;;;;;;11.85;9.82;;;;;;;36.44;18.20;101465.13;4995955;28;20053;-73
2021/10/10 10:47:36;;;;;;;16.73;10.95;;;;;;;36.81;18.19;101464.66;4996688;28;20483;-73
2021/10/10 10:50:37;;;;;;;13.00;10.02;;;;;;;37.14;18.20;101463.84;4995523;28;20049;-73
2021/10/10 10:53:22;;;;;;;15.40;10.73;;;;;;;37.79;17.13;101466.06;4995865;28;20060;-73
2021/10/10 10:56:06;;;;;;;15.02;10.15;;;;;;;37.03;17.33;101465.91;4981861;28;20045;-73
2021/10/10 10:58:50;;;;;;;18.08;9.63;;;;;;;37.55;17.21;101462.38;4995755;28;20057;-73
2021/10/10 11:02:02;;;;;;;16.67;9.93;;;;;;;37.74;17.29;101447.44;4995374;28;20053;-73
2021/10/10 11:05:03;;;;;;;15.48;9.82;;;;;;;37.24;16.82;101444.31;4981559;28;20061;-74
2021/10/10 11:07:50;;;;;;;14.40;9.07;;;;;;;38.24;16.99;101441.28;4995576;28;20073;-74
2021/10/10 11:10:36;;;;;;;12.32;9.32;;;;;;;38.00;17.40;101448.00;4995039;28;20100;-73
2021/10/10 11:13:46;;;;;;;13.15;10.18;;;;;;;38.29;16.83;101441.22;4995216;28;20111;-73
2021/10/10 11:16:32;;;;;;;13.73;9.82;;;;;;;38.23;16.90;101436.00;4995525;28;20423;-74
2021/10/10 11:19:18;;;;;;;11.02;9.15;;;;;;;38.73;16.34;101426.94;4995127;28;20053;-73
2021/10/10 11:22:02;;;;;;;15.57;9.85;;;;;;;39.17;16.44;101424.56;4981677;28;20065;-74
2021/10/10 11:24:46;;;;;;;14.20;10.48;;;;;;;38.57;16.24;101419.94;4981305;28;20080;-73
2021/10/10 11:27:30;;;;;;;11.80;9.63;;;;;;;38.06;16.55;101418.97;4994946;28;20053;-74
2021/10/10 11:30:14;;;;;;;14.27;9.68;;;;;;;38.51;16.02;101429.53;4994821;28;20045;-73
2021/10/10 11:32:59;;;;;;;17.33;8.80;;;;;;;38.00;16.28;101422.94;4996172;28;20093;-74
2021/10/10 11:35:44;;;;;;;13.05;9.40;;;;;;;37.51;16.81;101408.47;4994839;28;20120;-73
2021/10/10 11:38:27;;;;;;;10.63;9.45;;;;;;;37.11;17.30;101418.03;4981350;28;20048;-73
2021/10/10 11:41:11;;;;;;;12.02;8.93;;;;;;;37.18;16.50;101412.13;4994852;28;20060;-73
2021/10/10 11:44:01;;;;;;;13.13;9.25;;;;;;;37.86;16.79;101408.88;4980068;28;20061;-73
2021/10/10 11:46:51;;;;;;;13.40;9.48;;;;;;;38.61;16.15;101398.72;4994608;28;20049;-74
2021/10/10 11:49:40;;;;;;;11.77;8.63;;;;;;;38.80;15.79;101417.09;4994656;28;20134;-73
2021/10/10 11:55:21;;;;;;;12.50;9.00;;;;;;;38.32;15.41;101403.56;4995878;28;20141;-73
2021/10/10 11:58:05;;;;;;;14.13;8.50;;;;;;;38.27;15.38;101387.75;4994375;28;20096;-73
2021/10/10 12:00:50;;;;;;;12.88;8.90;;;;;;;38.70;15.47;101388.53;4994563;28;20093;-73
2021/10/10 12:03:33;;;;;;;12.52;9.00;;;;;;;38.61;15.61;101387.56;4995636;28;20104;-73
2021/10/10 12:06:19;;;;;;;13.38;8.65;;;;;;;37.85;16.25;101375.75;4995779;28;20053;-73
2021/10/10 12:09:12;;;;;;;14.27;9.05;;;;;;;37.09;16.77;101380.50;4994467;28;20092;-74
2021/10/10 12:12:07;;;;;;;13.20;8.93;;;;;;;37.55;16.65;101374.19;4994340;28;20081;-74
2021/10/10 12:14:52;;;;;;;12.98;8.65;;;;;;;37.75;16.47;101376.72;4994094;28;20064;-73
2021/10/10 12:20:27;;;;;;;13.80;9.13;;;;;;;37.15;17.47;101373.75;4955347;29;20191;-67
2021/10/10 12:23:12;;;;;;;13.50;8.90;;;;;;;37.08;16.77;101379.66;4969102;28;20066;-67
2021/10/10 12:25:57;;;;;;;13.93;9.77;;;;;;;37.29;16.65;101374.72;4956469;29;20089;-67
2021/10/10 12:28:41;;;;;;;12.60;9.82;;;;;;;36.39;16.79;101375.44;4968665;28;20127;-67
2021/10/10 12:31:25;;;;;;;13.23;9.52;;;;;;;36.99;16.74;101380.56;4968725;28;20138;-67
2021/10/10 12:34:10;;;;;;;17.20;9.90;;;;;;;36.65;17.62;101374.19;4968774;28;20186;-67
2021/10/10 12:36:54;;;;;;;11.20;8.60;;;;;;;36.52;17.46;101375.63;4955230;29;20146;-67